createdAt,value
2022-09-22T00:01:31.988Z,100.00
2022-09-22T00:04:06.030Z,100.00
2022-09-22T00:06:38.918Z,100.00
2022-09-22T00:09:09.461Z,100.00
2022-09-22T00:11:39.130Z,100.00
2022-09-22T00:14:09.580Z,100.00
2022-09-22T00:16:39.817Z,100.00
2022-09-22T00:19:07.795Z,100.00
2022-09-22T00:21:37.383Z,100.00
2022-09-22T00:24:07.130Z,100.00
2022-09-22T00:26:36.184Z,100.00
2022-09-22T00:29:04.776Z,100.00
2022-09-22T00:31:32.672Z,100.00
2022-09-22T00:34:00.524Z,100.00
2022-09-22T00:36:29.288Z,100.00
2022-09-22T00:38:59.735Z,100.00
2022-09-22T00:41:30.067Z,100.00
2022-09-22T00:44:35.215Z,100.00
2022-09-22T00:47:09.921Z,100.00
2022-09-22T00:49:45.819Z,100.00
2022-09-22T00:52:17.000Z,100.00
2022-09-22T00:54:46.912Z,100.00
2022-09-22T00:57:18.239Z,100.00
2022-09-22T00:59:48.720Z,100.00
2022-09-22T01:02:17.226Z,100.00
2022-09-22T01:04:46.928Z,100.00
2022-09-22T01:07:15.093Z,100.00
2022-09-22T01:09:43.018Z,100.00
2022-09-22T01:12:13.022Z,100.00
2022-09-22T01:14:57.872Z,100.00
2022-09-22T01:17:33.447Z,100.00
2022-09-22T01:20:29.915Z,100.00
2022-09-22T01:23:34.302Z,100.00
2022-09-22T01:26:30.402Z,100.00
2022-09-22T01:29:30.224Z,100.00
2022-09-22T01:32:06.887Z,100.00
2022-09-22T01:34:41.493Z,100.00
2022-09-22T01:37:17.858Z,100.00
2022-09-22T01:39:50.140Z,100.00
2022-09-22T01:42:23.780Z,100.00
2022-09-22T01:44:56.160Z,100.00
2022-09-22T01:47:29.426Z,100.00
2022-09-22T01:50:03.876Z,100.00
2022-09-22T01:52:34.839Z,100.00
2022-09-22T01:55:07.337Z,100.00
2022-09-22T01:57:43.900Z,100.00
2022-09-22T02:00:12.659Z,100.00
2022-09-22T02:02:48.724Z,100.00
2022-09-22T02:05:22.860Z,100.00
2022-09-22T02:07:55.163Z,100.00
2022-09-22T02:10:28.956Z,100.00
2022-09-22T02:12:56.803Z,100.00
2022-09-22T02:15:42.630Z,100.00
2022-09-22T02:18:17.578Z,100.00
2022-09-22T02:20:46.161Z,100.00
2022-09-22T02:23:14.350Z,100.00
2022-09-22T02:25:44.126Z,100.00
2022-09-22T02:28:17.070Z,100.00
2022-09-22T02:30:59.096Z,100.00
2022-09-22T02:33:40.824Z,100.00
2022-09-22T02:36:26.260Z,100.00
2022-09-22T02:39:03.093Z,100.00
2022-09-22T02:41:40.241Z,100.00
2022-09-22T02:44:13.375Z,100.00
2022-09-22T02:46:44.809Z,100.00
2022-09-22T02:49:19.251Z,100.00
2022-09-22T02:51:49.752Z,100.00
2022-09-22T02:54:18.065Z,100.00
2022-09-22T02:56:46.179Z,100.00
2022-09-22T02:59:14.141Z,100.00
2022-09-22T03:01:42.061Z,100.00
2022-09-22T03:04:09.896Z,100.00
2022-09-22T03:06:39.105Z,100.00
2022-09-22T03:09:07.238Z,100.00
2022-09-22T03:11:35.353Z,100.00
2022-09-22T03:14:03.218Z,100.00
2022-09-22T03:16:31.176Z,100.00
2022-09-22T03:18:59.206Z,100.00
2022-09-22T03:21:27.111Z,100.00
2022-09-22T03:23:56.471Z,100.00
2022-09-22T03:26:24.319Z,100.00
2022-09-22T03:28:53.033Z,100.00
2022-09-22T03:31:20.912Z,100.00
2022-09-22T03:33:52.598Z,100.00
2022-09-22T03:36:20.747Z,100.00
2022-09-22T03:38:48.664Z,100.00
2022-09-22T03:41:17.837Z,100.00
2022-09-22T03:43:45.694Z,100.00
2022-09-22T03:46:14.385Z,100.00
2022-09-22T03:48:45.106Z,100.00
2022-09-22T03:51:13.494Z,100.00
2022-09-22T03:53:41.336Z,100.00
2022-09-22T03:56:11.698Z,100.00
2022-09-22T03:58:41.529Z,100.00
2022-09-22T04:01:11.429Z,100.00
2022-09-22T04:03:39.778Z,100.00
2022-09-22T04:06:08.427Z,100.00
2022-09-22T04:08:36.260Z,100.00
2022-09-22T04:11:04.277Z,100.00
2022-09-22T04:13:32.643Z,100.00
2022-09-22T04:16:02.280Z,100.00
2022-09-22T04:18:30.120Z,100.00
2022-09-22T04:20:59.095Z,100.00
2022-09-22T04:23:27.808Z,100.00
2022-09-22T04:25:55.728Z,100.00
2022-09-22T04:28:23.544Z,100.00
2022-09-22T04:30:51.613Z,100.00
2022-09-22T04:33:21.331Z,100.00
2022-09-22T04:35:49.844Z,100.00
2022-09-22T04:38:18.670Z,100.00
2022-09-22T04:40:47.093Z,100.00
2022-09-22T04:43:14.900Z,100.00
2022-09-22T04:45:45.133Z,100.00
2022-09-22T04:48:13.095Z,100.00
2022-09-22T04:50:47.151Z,100.00
2022-09-22T04:53:16.281Z,100.00
2022-09-22T04:55:44.094Z,100.00
2022-09-22T04:58:11.982Z,100.00
2022-09-22T05:00:39.792Z,100.00
2022-09-22T05:03:09.699Z,100.00
2022-09-22T05:05:38.535Z,100.00
2022-09-22T05:08:07.796Z,100.00
2022-09-22T05:10:36.857Z,100.00
2022-09-22T05:13:05.834Z,100.00
2022-09-22T05:15:34.726Z,100.00
2022-09-22T05:18:02.805Z,100.00
2022-09-22T05:20:30.632Z,100.00
2022-09-22T05:22:58.557Z,100.00
2022-09-22T05:25:28.523Z,100.00
2022-09-22T05:27:57.432Z,100.00
2022-09-22T05:30:27.365Z,100.00
2022-09-22T05:32:55.204Z,100.00
2022-09-22T05:35:24.964Z,100.00
2022-09-22T05:37:53.898Z,100.00
2022-09-22T05:40:24.087Z,100.00
2022-09-22T05:42:54.560Z,100.00
2022-09-22T05:45:23.035Z,100.00
2022-09-22T05:47:51.292Z,100.00
2022-09-22T05:50:20.467Z,100.00
2022-09-22T05:52:48.608Z,100.00
2022-09-22T05:55:16.730Z,100.00
2022-09-22T05:57:44.713Z,100.00
2022-09-22T06:00:14.692Z,100.00
2022-09-22T06:02:45.199Z,100.00
2022-09-22T06:05:15.213Z,100.00
2022-09-22T06:07:43.806Z,100.00
2022-09-22T06:10:12.752Z,100.00
2022-09-22T06:12:40.899Z,100.00
2022-09-22T06:15:09.535Z,100.00
2022-09-22T06:17:38.728Z,100.00
2022-09-22T06:20:08.546Z,100.00
2022-09-22T06:22:36.437Z,100.00
2022-09-22T06:25:04.967Z,100.00
2022-09-22T06:27:33.182Z,100.00
2022-09-22T06:30:01.004Z,97.92
2022-09-22T06:32:28.833Z,94.80
2022-09-22T06:35:01.211Z,95.11
2022-09-22T06:37:29.090Z,95.37
2022-09-22T06:39:56.919Z,97.08
2022-09-22T06:42:24.876Z,95.41
2022-09-22T06:44:53.509Z,94.93
2022-09-22T06:47:21.317Z,91.77
2022-09-22T06:49:49.177Z,92.53
2022-09-22T06:52:18.385Z,92.24
2022-09-22T06:54:46.226Z,95.94
2022-09-22T06:57:14.088Z,98.85
2022-09-22T06:59:41.931Z,97.88
2022-09-22T07:02:11.020Z,92.79
2022-09-22T07:04:38.878Z,87.49
2022-09-22T07:07:06.700Z,84.16
2022-09-22T07:09:35.898Z,79.85
2022-09-22T07:12:03.775Z,82.57
2022-09-22T07:14:32.686Z,79.58
2022-09-22T07:17:01.303Z,78.44
2022-09-22T07:19:29.146Z,75.77
2022-09-22T07:21:57.395Z,76.31
2022-09-22T07:24:27.872Z,77.58
2022-09-22T07:26:57.066Z,76.63
2022-09-22T07:29:24.884Z,73.57
2022-09-22T07:31:53.417Z,72.35
2022-09-22T07:34:21.268Z,73.27
2022-09-22T07:36:50.031Z,70.46
2022-09-22T07:39:17.878Z,71.16
2022-09-22T07:41:47.949Z,69.54
2022-09-22T07:44:44.348Z,70.65
2022-09-22T07:47:12.790Z,69.03
2022-09-22T07:49:40.620Z,68.64
2022-09-22T07:52:08.461Z,67.83
2022-09-22T07:54:37.300Z,67.63
2022-09-22T07:57:06.725Z,65.86
2022-09-22T07:59:36.052Z,65.14
2022-09-22T08:02:03.956Z,64.96
2022-09-22T08:04:33.582Z,63.62
2022-09-22T08:07:01.421Z,63.20
2022-09-22T08:09:30.256Z,62.40
2022-09-22T08:11:58.081Z,62.42
2022-09-22T08:14:25.974Z,62.01
2022-09-22T08:16:55.252Z,61.25
2022-09-22T08:19:24.814Z,58.85
2022-09-22T08:21:54.355Z,57.19
2022-09-22T08:24:23.469Z,58.75
2022-09-22T08:26:55.745Z,60.47
2022-09-22T08:29:24.406Z,62.83
2022-09-22T08:31:52.347Z,66.11
2022-09-22T08:34:22.425Z,65.33
2022-09-22T08:36:50.369Z,62.16
2022-09-22T08:39:19.277Z,59.13
2022-09-22T08:42:01.224Z,55.60
2022-09-22T08:44:33.366Z,54.47
2022-09-22T08:47:03.182Z,54.46
2022-09-22T08:49:56.953Z,55.07
2022-09-22T08:52:29.831Z,53.50
2022-09-22T08:54:59.612Z,53.85
2022-09-22T08:57:41.158Z,54.03
2022-09-22T09:00:14.667Z,52.64
2022-09-22T09:02:46.027Z,51.48
2022-09-22T09:05:48.419Z,49.71
2022-09-22T09:08:37.117Z,50.20
2022-09-22T09:11:20.132Z,50.00
2022-09-22T09:14:04.784Z,48.75
2022-09-22T09:16:45.196Z,48.09
2022-09-22T09:19:18.721Z,48.31
2022-09-22T09:21:51.807Z,49.52
2022-09-22T09:27:22.280Z,48.75
2022-09-22T09:30:00.636Z,46.47
2022-09-22T09:32:34.521Z,44.75
2022-09-22T09:37:37.752Z,45.13
2022-09-22T09:40:08.867Z,45.07
2022-09-22T09:42:37.039Z,47.71
2022-09-22T09:45:07.070Z,49.15
2022-09-22T09:47:59.052Z,49.88
2022-09-22T09:50:32.240Z,50.85
2022-09-22T09:53:01.967Z,50.87
2022-09-22T09:55:29.796Z,51.31
2022-09-22T09:58:07.072Z,50.74
2022-09-22T10:00:35.045Z,48.71
2022-09-22T10:03:13.688Z,46.66
2022-09-22T10:05:41.519Z,44.69
2022-09-22T10:08:20.196Z,44.22
2022-09-22T10:10:49.166Z,43.16
2022-09-22T10:13:24.384Z,43.44
2022-09-22T10:16:17.125Z,41.48
2022-09-22T10:18:44.983Z,41.54
2022-09-22T10:21:16.413Z,42.85
2022-09-22T10:23:47.499Z,43.34
2022-09-22T10:26:18.070Z,45.30
2022-09-22T10:28:50.844Z,47.73
2022-09-22T10:31:22.270Z,48.14
2022-09-22T10:33:58.339Z,48.66
2022-09-22T10:36:29.036Z,47.96
2022-09-22T10:38:59.803Z,47.67
2022-09-22T10:41:35.374Z,48.31
2022-09-22T10:44:35.041Z,46.19
2022-09-22T10:47:20.021Z,46.96
2022-09-22T10:50:24.676Z,48.00
2022-09-22T10:52:57.258Z,48.74
2022-09-22T10:55:31.582Z,48.16
2022-09-22T10:58:21.019Z,49.91
2022-09-22T11:00:48.848Z,50.35
2022-09-22T11:03:29.536Z,50.37
2022-09-22T11:06:28.550Z,49.97
2022-09-22T11:09:19.579Z,48.07
2022-09-22T11:12:15.341Z,47.62
2022-09-22T11:14:54.724Z,45.78
2022-09-22T11:17:38.591Z,44.02
2022-09-22T11:20:26.167Z,45.09
2022-09-22T11:23:18.164Z,46.63
2022-09-22T11:25:58.699Z,47.70
2022-09-22T11:28:44.725Z,44.56
2022-09-22T11:31:20.866Z,45.65
2022-09-22T11:34:24.101Z,45.73
2022-09-22T11:37:01.064Z,46.00
2022-09-22T11:39:43.145Z,44.41
2022-09-22T11:42:25.079Z,43.82
2022-09-22T11:45:06.687Z,43.17
2022-09-22T11:47:56.863Z,43.28
2022-09-22T11:50:36.377Z,44.70
2022-09-22T11:53:24.306Z,47.07
2022-09-22T11:56:06.344Z,48.54
2022-09-22T11:58:40.055Z,49.77
2022-09-22T12:01:13.493Z,49.55
2022-09-22T12:03:46.217Z,46.14
2022-09-22T12:06:18.836Z,44.86
2022-09-22T12:11:28.260Z,41.87
2022-09-22T12:13:59.035Z,41.96
2022-09-22T12:16:41.799Z,41.83
2022-09-22T12:19:24.444Z,42.10
2022-09-22T12:22:00.347Z,40.62
2022-09-22T12:24:28.265Z,42.13
2022-09-22T12:26:56.272Z,42.21
2022-09-22T12:29:30.456Z,43.92
2022-09-22T12:32:00.687Z,45.39
2022-09-22T12:34:32.818Z,46.21
2022-09-22T12:37:11.713Z,46.49
2022-09-22T12:39:43.123Z,46.93
2022-09-22T12:42:21.701Z,47.68
2022-09-22T12:44:54.755Z,48.45
2022-09-22T12:47:30.325Z,48.04
2022-09-22T12:50:00.179Z,48.28
2022-09-22T12:53:03.520Z,48.86
2022-09-22T12:55:38.276Z,49.34
2022-09-22T12:58:44.353Z,49.70
2022-09-22T13:01:39.326Z,50.35
2022-09-22T13:04:14.819Z,49.80
2022-09-22T13:06:57.204Z,49.56
2022-09-22T13:09:28.481Z,49.16
2022-09-22T13:12:27.020Z,49.56
2022-09-22T13:15:12.309Z,49.27
2022-09-22T13:17:42.387Z,49.49
2022-09-22T13:20:20.823Z,49.64
2022-09-22T13:22:48.948Z,49.80
2022-09-22T13:25:23.435Z,50.18
2022-09-22T13:28:10.644Z,49.47
2022-09-22T13:30:40.320Z,48.84
2022-09-22T13:33:19.126Z,49.42
2022-09-22T13:35:51.837Z,49.27
2022-09-22T13:38:19.694Z,49.79
2022-09-22T13:40:50.934Z,49.61
2022-09-22T13:43:27.314Z,51.01
2022-09-22T13:45:56.591Z,52.10
2022-09-22T13:48:24.908Z,52.34
2022-09-22T13:50:57.266Z,52.58
2022-09-22T13:53:25.256Z,52.96
2022-09-22T13:55:53.740Z,53.61
2022-09-22T13:58:26.192Z,54.87
2022-09-22T14:01:14.348Z,55.17
2022-09-22T14:03:43.619Z,54.61
2022-09-22T14:06:15.407Z,54.46
2022-09-22T14:08:45.710Z,53.58
2022-09-22T14:11:16.878Z,52.63
2022-09-22T14:13:57.684Z,53.13
2022-09-22T14:16:29.868Z,52.53
2022-09-22T14:19:04.418Z,52.28
2022-09-22T14:21:41.451Z,52.02
2022-09-22T14:24:13.731Z,52.30
2022-09-22T14:26:47.374Z,51.84
2022-09-22T14:29:20.362Z,50.89
2022-09-22T14:31:53.669Z,50.93
2022-09-22T14:34:25.637Z,51.03
2022-09-22T14:36:56.256Z,50.81
2022-09-22T14:39:31.784Z,51.19
2022-09-22T14:42:08.966Z,51.32
2022-09-22T14:44:44.787Z,51.90
2022-09-22T14:47:25.764Z,52.12
2022-09-22T14:50:20.496Z,52.45
2022-09-22T14:52:56.671Z,53.21
2022-09-22T14:55:31.905Z,53.73
2022-09-22T14:58:04.984Z,54.48
2022-09-22T15:00:50.747Z,54.32
2022-09-22T15:03:24.769Z,54.39
2022-09-22T15:05:52.724Z,54.20
2022-09-22T15:08:27.855Z,54.22
2022-09-22T15:10:57.819Z,54.49
2022-09-22T15:13:31.437Z,54.61
2022-09-22T15:15:59.824Z,54.69
2022-09-22T15:18:30.791Z,54.98
2022-09-22T15:21:04.004Z,55.48
2022-09-22T15:23:41.111Z,55.42
2022-09-22T15:26:15.994Z,55.82
2022-09-22T15:28:45.134Z,55.87
2022-09-22T15:31:13.973Z,55.74
2022-09-22T15:33:41.855Z,55.48
2022-09-22T15:36:13.866Z,54.99
2022-09-22T15:38:43.819Z,56.35
2022-09-22T15:41:15.748Z,56.77
2022-09-22T15:43:44.715Z,58.23
2022-09-22T15:46:28.590Z,58.06
2022-09-22T15:49:00.835Z,59.03
2022-09-22T15:51:30.414Z,59.02
2022-09-22T15:53:59.850Z,58.83
2022-09-22T15:56:30.089Z,58.20
2022-09-22T15:59:01.147Z,58.26
2022-09-22T16:01:29.516Z,58.95
2022-09-22T16:04:00.292Z,60.15
2022-09-22T16:06:28.681Z,60.89
2022-09-22T16:08:58.457Z,61.94
2022-09-22T16:11:29.785Z,62.84
2022-09-22T16:14:00.622Z,63.68
2022-09-22T16:16:29.501Z,64.79
2022-09-22T16:18:57.529Z,65.16
2022-09-22T16:21:27.324Z,66.38
2022-09-22T16:23:59.420Z,66.44
2022-09-22T16:26:31.781Z,67.70
2022-09-22T16:29:00.551Z,68.58
2022-09-22T16:31:28.701Z,69.35
2022-09-22T16:33:58.292Z,70.59
2022-09-22T16:36:28.496Z,69.72
2022-09-22T16:38:57.494Z,69.99
2022-09-22T16:41:26.745Z,70.25
2022-09-22T16:43:57.407Z,69.73
2022-09-22T16:46:30.318Z,70.16
2022-09-22T16:49:00.566Z,70.55
2022-09-22T16:51:29.248Z,70.44
2022-09-22T16:53:57.464Z,71.26
2022-09-22T16:56:27.172Z,72.73
2022-09-22T16:58:56.744Z,72.96
2022-09-22T17:01:25.104Z,74.28
2022-09-22T17:03:53.803Z,74.33
2022-09-22T17:06:24.538Z,74.46
2022-09-22T17:08:52.988Z,74.98
2022-09-22T17:11:23.399Z,76.27
2022-09-22T17:13:51.360Z,76.34
2022-09-22T17:16:23.057Z,76.47
2022-09-22T17:18:52.173Z,76.25
2022-09-22T17:21:22.616Z,76.34
2022-09-22T17:23:51.936Z,76.83
2022-09-22T17:26:21.937Z,76.93
2022-09-22T17:28:52.736Z,76.89
2022-09-22T17:31:23.580Z,77.00
2022-09-22T17:33:52.454Z,77.09
2022-09-22T17:36:23.944Z,77.55
2022-09-22T17:38:53.419Z,77.50
2022-09-22T17:41:23.279Z,77.92
2022-09-22T17:43:53.206Z,78.26
2022-09-22T17:46:23.537Z,78.10
2022-09-22T17:49:08.899Z,79.14
2022-09-22T17:51:52.337Z,79.14
2022-09-22T17:54:40.750Z,79.87
2022-09-22T17:57:10.037Z,80.62
2022-09-22T17:59:40.081Z,81.36
2022-09-22T18:02:11.123Z,81.97
2022-09-22T18:04:39.567Z,82.11
2022-09-22T18:07:09.662Z,82.49
2022-09-22T18:09:41.928Z,82.74
2022-09-22T18:12:12.956Z,82.68
2022-09-22T18:14:44.220Z,82.97
2022-09-22T18:17:15.216Z,83.10
2022-09-22T18:19:44.203Z,83.53
2022-09-22T18:22:16.732Z,83.72
2022-09-22T18:24:45.247Z,84.07
2022-09-22T18:27:13.280Z,84.39
2022-09-22T18:29:41.140Z,84.77
2022-09-22T18:32:09.089Z,84.59
2022-09-22T18:34:39.277Z,84.58
2022-09-22T18:37:08.641Z,84.73
2022-09-22T18:39:36.493Z,85.05
2022-09-22T18:42:04.916Z,84.63
2022-09-22T18:44:33.873Z,84.87
2022-09-22T18:47:03.271Z,85.64
2022-09-22T18:49:33.311Z,86.06
2022-09-22T18:52:02.613Z,86.71
2022-09-22T18:54:31.416Z,86.62
2022-09-22T18:56:59.508Z,87.01
2022-09-22T18:59:28.370Z,87.24
2022-09-22T19:01:56.463Z,87.25
2022-09-22T19:04:26.915Z,87.24
2022-09-22T19:07:14.141Z,87.58
2022-09-22T19:09:44.520Z,87.86
2022-09-22T19:12:13.056Z,88.23
2022-09-22T19:14:41.831Z,88.53
2022-09-22T19:17:11.634Z,88.98
2022-09-22T19:19:42.221Z,89.48
2022-09-22T19:22:12.162Z,90.06
2022-09-22T19:24:41.748Z,90.10
2022-09-22T19:27:12.049Z,89.94
2022-09-22T19:29:39.872Z,90.08
2022-09-22T19:32:08.063Z,90.50
2022-09-22T19:34:35.907Z,91.20
2022-09-22T19:37:04.104Z,91.61
2022-09-22T19:39:32.302Z,91.98
2022-09-22T19:42:00.452Z,91.82
2022-09-22T19:44:32.381Z,91.84
2022-09-22T19:47:01.371Z,92.32
2022-09-22T19:49:29.979Z,92.03
2022-09-22T19:51:57.848Z,92.25
2022-09-22T19:54:25.696Z,92.56
2022-09-22T19:56:53.532Z,92.04
2022-09-22T19:59:21.385Z,92.48
2022-09-22T20:01:51.084Z,92.05
2022-09-22T20:04:20.577Z,91.88
2022-09-22T20:06:48.892Z,92.28
2022-09-22T20:09:16.856Z,92.26
2022-09-22T20:11:47.521Z,92.24
2022-09-22T20:14:22.641Z,91.71
2022-09-22T20:16:54.323Z,92.20
2022-09-22T20:19:23.439Z,91.92
2022-09-22T20:21:52.722Z,92.27
2022-09-22T20:24:22.452Z,92.21
2022-09-22T20:26:50.951Z,92.04
2022-09-22T20:29:20.612Z,92.07
2022-09-22T20:31:48.611Z,91.93
2022-09-22T20:34:20.013Z,91.80
2022-09-22T20:36:47.989Z,92.03
2022-09-22T20:39:16.093Z,91.93
2022-09-22T20:41:44.859Z,91.37
2022-09-22T20:44:14.816Z,90.74
2022-09-22T20:46:43.860Z,90.53
2022-09-22T20:49:14.110Z,90.17
2022-09-22T20:51:43.636Z,90.27
2022-09-22T20:54:11.584Z,89.75
2022-09-22T20:56:42.645Z,90.02
2022-09-22T20:59:11.127Z,89.85
2022-09-22T21:01:39.188Z,89.98
2022-09-22T21:04:07.455Z,89.73
2022-09-22T21:06:35.550Z,90.20
2022-09-22T21:09:22.346Z,91.19
2022-09-22T21:11:50.321Z,93.58
2022-09-22T21:14:18.292Z,95.31
2022-09-22T21:16:50.292Z,96.95
2022-09-22T21:19:18.591Z,97.86
2022-09-22T21:21:46.542Z,98.34
2022-09-22T21:24:17.167Z,98.24
2022-09-22T21:26:45.251Z,97.91
2022-09-22T21:29:13.248Z,97.94
2022-09-22T21:31:41.207Z,97.63
2022-09-22T21:34:09.613Z,97.26
2022-09-22T21:36:37.638Z,97.12
2022-09-22T21:39:05.820Z,96.94
2022-09-22T21:41:35.380Z,97.17
2022-09-22T21:44:03.891Z,97.16
2022-09-22T21:46:32.845Z,97.48
2022-09-22T21:49:03.333Z,97.65
2022-09-22T21:51:34.254Z,98.27
2022-09-22T21:54:03.029Z,98.67
2022-09-22T21:56:32.923Z,99.51
2022-09-22T21:59:03.283Z,100.00
2022-09-22T22:01:33.521Z,100.00
2022-09-22T22:04:03.013Z,100.00
2022-09-22T22:06:32.595Z,100.00
2022-09-22T22:09:04.277Z,100.00
2022-09-22T22:11:33.714Z,100.00
2022-09-22T22:14:04.940Z,100.00
2022-09-22T22:16:34.751Z,100.00
2022-09-22T22:19:03.130Z,100.00
2022-09-22T22:21:31.971Z,100.00
2022-09-22T22:24:27.974Z,100.00
2022-09-22T22:26:58.019Z,100.00
2022-09-22T22:29:31.633Z,100.00
2022-09-22T22:31:59.731Z,100.00
2022-09-22T22:34:27.771Z,100.00
2022-09-22T22:36:58.018Z,100.00
2022-09-22T22:39:26.074Z,100.00
2022-09-22T22:41:55.310Z,100.00
2022-09-22T22:44:23.411Z,100.00
2022-09-22T22:46:52.576Z,100.00
2022-09-22T22:49:21.269Z,100.00
2022-09-22T22:51:49.982Z,100.00
2022-09-22T22:54:17.868Z,100.00
2022-09-22T22:56:49.029Z,100.00
2022-09-22T22:59:19.277Z,100.00
2022-09-22T23:01:47.216Z,100.00
2022-09-22T23:04:17.491Z,100.00
2022-09-22T23:06:45.327Z,100.00
2022-09-22T23:09:15.034Z,100.00
2022-09-22T23:11:44.163Z,100.00
2022-09-22T23:14:15.660Z,100.00
2022-09-22T23:16:44.589Z,100.00
2022-09-22T23:19:14.118Z,100.00
2022-09-22T23:21:44.977Z,100.00
2022-09-22T23:24:16.388Z,100.00
2022-09-22T23:26:44.656Z,100.00
2022-09-22T23:29:12.679Z,100.00
2022-09-22T23:31:40.529Z,100.00
2022-09-22T23:34:08.382Z,100.00
2022-09-22T23:36:36.211Z,100.00
2022-09-22T23:39:06.004Z,100.00
2022-09-22T23:41:36.274Z,100.00
2022-09-22T23:44:06.292Z,100.00
2022-09-22T23:46:34.210Z,100.00
2022-09-22T23:49:02.380Z,100.00
2022-09-22T23:51:30.444Z,100.00
2022-09-22T23:53:58.508Z,100.00
2022-09-22T23:56:27.728Z,100.00
2022-09-22T23:58:55.741Z,100.00
